Time;durP1;ratioP1;P1;durP2;ratioP2;P2;SDS_P1;SDS_P2;PMS_P1;PMS_P2;Temp;Humidity;BMP_temperature;BMP_pressure;BME280_temperature;BME280_humidity;BME280_pressure;Samples;Min_cycle;Max_cycle;Signal;HPM_P1;HPM_P2
2024/03/07 00:00:22;;;;;;;2.07;1.53;;;;;;;;;;4877986;29;20111;-64
2024/03/07 00:02:48;;;;;;;1.73;1.63;;;;;;;;;;4878169;29;20045;-64
2024/03/07 00:05:14;;;;;;;0.38;0.38;;;;;;;;;;4878408;29;20439;-65
2024/03/07 00:07:39;;;;;;;1.42;1.25;;;;;;;;;;4877787;29;20029;-65
2024/03/07 00:10:06;;;;;;;1.13;0.88;;;;;;;;;;4878654;29;20060;-64
2024/03/07 00:12:32;;;;;;;0.50;0.50;;;;;;;;;;4878832;29;20374;-64
2024/03/07 00:14:57;;;;;;;0.55;0.40;;;;;;;;;;4877762;29;20025;-65
2024/03/07 00:17:23;;;;;;;2.17;0.63;;;;;;;;;;4878292;29;20108;-64
2024/03/07 00:19:48;;;;;;;0.50;0.50;;;;;;;;;;4878283;29;20025;-64
2024/03/07 00:22:14;;;;;;;0.47;0.47;;;;;;;;;;4877784;29;20288;-65
2024/03/07 00:24:40;;;;;;;0.28;0.28;;;;;;;;;;4878488;29;20029;-64
2024/03/07 00:27:05;;;;;;;0.45;0.45;;;;;;;;;;4878553;29;20382;-64
2024/03/07 00:29:30;;;;;;;0.50;0.50;;;;;;;;;;4876824;29;20025;-64
2024/03/07 00:31:55;;;;;;;0.33;0.33;;;;;;;;;;4877782;29;20100;-65
2024/03/07 00:34:23;;;;;;;0.43;0.43;;;;;;;;;;4877452;29;20339;-67
2024/03/07 00:36:48;;;;;;;2.72;1.02;;;;;;;;;;4877587;29;20497;-68
2024/03/07 00:39:13;;;;;;;1.08;0.98;;;;;;;;;;4873389;29;20121;-67
2024/03/07 00:41:39;;;;;;;0.53;0.53;;;;;;;;;;4877253;29;20017;-67
2024/03/07 00:44:04;;;;;;;0.70;0.57;;;;;;;;;;4877457;29;20625;-67
2024/03/07 00:46:29;;;;;;;0.60;0.60;;;;;;;;;;4878498;29;20017;-67
2024/03/07 00:48:55;;;;;;;0.73;0.67;;;;;;;;;;4878842;29;20036;-68
2024/03/07 00:51:20;;;;;;;0.10;0.10;;;;;;;;;;4878210;29;20768;-68
2024/03/07 00:53:47;;;;;;;0.57;0.57;;;;;;;;;;4878658;29;20120;-68
2024/03/07 00:56:12;;;;;;;0.10;0.10;;;;;;;;;;4878264;29;20017;-67
2024/03/07 00:58:37;;;;;;;0.85;0.85;;;;;;;;;;4877867;29;20041;-68
2024/03/07 01:01:03;;;;;;;0.40;0.40;;;;;;;;;;4878673;29;20446;-68
2024/03/07 01:03:28;;;;;;;1.20;1.20;;;;;;;;;;4878570;29;20109;-67
2024/03/07 01:05:53;;;;;;;0.97;0.93;;;;;;;;;;4878835;29;20359;-68
2024/03/07 01:08:18;;;;;;;0.70;0.70;;;;;;;;;;4878465;29;20029;-67
2024/03/07 01:10:44;;;;;;;1.07;1.00;;;;;;;;;;4878839;29;20268;-68
2024/03/07 01:13:18;;;;;;;3.15;0.57;;;;;;;;;;4878740;29;20108;-68
2024/03/07 01:15:44;;;;;;;1.02;0.80;;;;;;;;;;4879492;29;20057;-68
2024/03/07 01:18:09;;;;;;;1.63;1.52;;;;;;;;;;4866086;29;20475;-68
2024/03/07 01:20:35;;;;;;;1.20;0.97;;;;;;;;;;4860933;29;20517;-68
2024/03/07 01:23:00;;;;;;;0.47;0.47;;;;;;;;;;4860471;29;20029;-68
2024/03/07 01:25:26;;;;;;;0.23;0.23;;;;;;;;;;4868100;29;20154;-68
2024/03/07 01:27:52;;;;;;;1.02;1.02;;;;;;;;;;4878476;29;20280;-67
2024/03/07 01:30:17;;;;;;;5.07;2.30;;;;;;;;;;4878772;29;20037;-67
2024/03/07 01:32:43;;;;;;;2.05;1.70;;;;;;;;;;4878636;29;20260;-68
2024/03/07 01:35:08;;;;;;;1.23;1.13;;;;;;;;;;4878579;29;20089;-68
2024/03/07 01:37:33;;;;;;;0.32;0.32;;;;;;;;;;4879016;29;20029;-68
2024/03/07 01:39:58;;;;;;;1.23;1.13;;;;;;;;;;4878397;29;20097;-68
2024/03/07 01:42:24;;;;;;;0.37;0.37;;;;;;;;;;4878750;29;20049;-67
2024/03/07 01:44:50;;;;;;;0.30;0.30;;;;;;;;;;4877099;29;20339;-67
2024/03/07 01:47:15;;;;;;;0.43;0.43;;;;;;;;;;4878707;29;20551;-67
2024/03/07 01:49:41;;;;;;;0.30;0.30;;;;;;;;;;4878850;29;20049;-68
2024/03/07 01:52:07;;;;;;;0.30;0.30;;;;;;;;;;4879125;29;20036;-67
2024/03/07 01:54:32;;;;;;;1.98;1.27;;;;;;;;;;4864895;29;20029;-68
2024/03/07 01:56:58;;;;;;;0.30;0.30;;;;;;;;;;4881644;29;20028;-67
2024/03/07 01:59:24;;;;;;;0.40;0.40;;;;;;;;;;4881771;29;20409;-68
2024/03/07 02:01:49;;;;;;;0.73;0.73;;;;;;;;;;4881511;29;20482;-67
2024/03/07 02:04:15;;;;;;;0.15;0.15;;;;;;;;;;4881217;29;20132;-68
2024/03/07 02:06:40;;;;;;;0.83;0.83;;;;;;;;;;4881643;29;20037;-67
2024/03/07 02:09:06;;;;;;;0.17;0.17;;;;;;;;;;4881560;29;20064;-68
2024/03/07 02:11:32;;;;;;;0.30;0.30;;;;;;;;;;4881787;29;20029;-68
2024/03/07 02:13:57;;;;;;;0.73;0.47;;;;;;;;;;4881945;29;20073;-68
2024/03/07 02:16:22;;;;;;;1.23;0.93;;;;;;;;;;4881467;29;20029;-67
2024/03/07 02:18:48;;;;;;;1.60;1.42;;;;;;;;;;4881472;29;20081;-67
2024/03/07 02:21:13;;;;;;;1.55;1.40;;;;;;;;;;4881771;29;20059;-68
2024/03/07 02:23:39;;;;;;;1.67;1.38;;;;;;;;;;4881319;29;20438;-68
2024/03/07 02:26:04;;;;;;;0.52;0.52;;;;;;;;;;4881461;29;20033;-68
2024/03/07 02:28:29;;;;;;;2.27;1.77;;;;;;;;;;4881106;29;20033;-67
2024/03/07 02:30:55;;;;;;;2.23;1.80;;;;;;;;;;4881017;29;20029;-67
2024/03/07 02:33:20;;;;;;;2.83;0.52;;;;;;;;;;4881051;29;20264;-68
2024/03/07 02:35:45;;;;;;;0.43;0.43;;;;;;;;;;4881112;29;20036;-67
2024/03/07 02:38:10;;;;;;;2.33;0.40;;;;;;;;;;4881065;29;20054;-67
2024/03/07 02:40:36;;;;;;;0.77;0.77;;;;;;;;;;4881330;29;20025;-68
2024/03/07 02:43:04;;;;;;;0.30;0.30;;;;;;;;;;4881270;29;20260;-67
2024/03/07 02:45:30;;;;;;;0.68;0.68;;;;;;;;;;4881033;29;20298;-67
2024/03/07 02:47:55;;;;;;;0.30;0.30;;;;;;;;;;4881240;29;20439;-68
2024/03/07 02:50:22;;;;;;;1.40;1.35;;;;;;;;;;4880919;29;20371;-67
2024/03/07 02:52:47;;;;;;;0.30;0.30;;;;;;;;;;4880827;29;20025;-67
2024/03/07 02:55:13;;;;;;;1.23;0.88;;;;;;;;;;4880918;29;20371;-68
2024/03/07 02:57:38;;;;;;;0.40;0.40;;;;;;;;;;4881014;29;20036;-68
2024/03/07 03:00:13;;;;;;;0.20;0.20;;;;;;;;;;4881426;29;20419;-68
2024/03/07 03:02:38;;;;;;;0.50;0.50;;;;;;;;;;4881228;29;20068;-68
2024/03/07 03:05:06;;;;;;;1.65;1.02;;;;;;;;;;4880145;29;20053;-68
2024/03/07 03:07:31;;;;;;;0.10;0.10;;;;;;;;;;4880968;29;20037;-68
2024/03/07 03:09:56;;;;;;;0.30;0.30;;;;;;;;;;4881067;29;20100;-68
2024/03/07 03:12:22;;;;;;;0.30;0.30;;;;;;;;;;4880930;29;20028;-68
2024/03/07 03:14:47;;;;;;;0.35;0.35;;;;;;;;;;4881094;29;20378;-68
2024/03/07 03:17:14;;;;;;;0.20;0.20;;;;;;;;;;4868290;29;20037;-68
2024/03/07 03:19:39;;;;;;;0.22;0.22;;;;;;;;;;4862524;29;20498;-68
2024/03/07 03:22:05;;;;;;;0.40;0.40;;;;;;;;;;4862446;29;20057;-68
2024/03/07 03:24:30;;;;;;;1.38;0.50;;;;;;;;;;4862427;29;20026;-67
2024/03/07 03:26:55;;;;;;;1.25;1.00;;;;;;;;;;4862300;29;20033;-68
2024/03/07 03:29:21;;;;;;;0.10;0.10;;;;;;;;;;4863727;29;20156;-67
2024/03/07 03:31:46;;;;;;;0.10;0.10;;;;;;;;;;4880172;29;20036;-67
2024/03/07 03:34:11;;;;;;;0.10;0.10;;;;;;;;;;4880210;29;20033;-68
2024/03/07 03:36:36;;;;;;;0.33;0.23;;;;;;;;;;4879310;29;20044;-67
2024/03/07 03:39:01;;;;;;;0.70;0.70;;;;;;;;;;4880258;29;20255;-67
2024/03/07 03:41:27;;;;;;;0.13;0.13;;;;;;;;;;4879913;29;20741;-67
2024/03/07 03:43:53;;;;;;;0.30;0.30;;;;;;;;;;4880043;29;20033;-68
2024/03/07 03:46:18;;;;;;;0.10;0.10;;;;;;;;;;4879813;29;20033;-67
2024/03/07 03:48:43;;;;;;;0.10;0.10;;;;;;;;;;4879874;29;20029;-67
2024/03/07 03:51:09;;;;;;;3.80;1.63;;;;;;;;;;4879540;29;20040;-67
2024/03/07 03:53:34;;;;;;;0.20;0.20;;;;;;;;;;4879578;29;20048;-67
2024/03/07 03:55:59;;;;;;;0.20;0.20;;;;;;;;;;4879839;29;20069;-67
2024/03/07 03:58:34;;;;;;;0.10;0.10;;;;;;;;;;4872670;29;20052;-67
2024/03/07 04:00:59;;;;;;;0.55;0.55;;;;;;;;;;4879342;29;20029;-67
2024/03/07 04:03:38;;;;;;;0.73;0.73;;;;;;;;;;4879286;29;20041;-64
2024/03/07 04:06:04;;;;;;;0.52;0.38;;;;;;;;;;4879378;29;20033;-64
2024/03/07 04:08:29;;;;;;;0.10;0.10;;;;;;;;;;4879559;29;20112;-64
2024/03/07 04:10:55;;;;;;;0.40;0.30;;;;;;;;;;4879644;29;20167;-64
2024/03/07 04:13:22;;;;;;;0.68;0.68;;;;;;;;;;4879589;29;20684;-64
2024/03/07 04:15:47;;;;;;;0.08;0.08;;;;;;;;;;4879497;29;20025;-64
2024/03/07 04:18:12;;;;;;;0.17;0.17;;;;;;;;;;4879527;29;20032;-64
2024/03/07 04:20:39;;;;;;;0.13;0.13;;;;;;;;;;4879505;29;20044;-64
2024/03/07 04:23:05;;;;;;;0.40;0.30;;;;;;;;;;4879610;29;20037;-64
2024/03/07 04:25:31;;;;;;;0.40;0.38;;;;;;;;;;4879414;29;20112;-64
2024/03/07 04:27:56;;;;;;;0.10;0.10;;;;;;;;;;4878994;29;20123;-64
2024/03/07 04:30:21;;;;;;;0.50;0.50;;;;;;;;;;4879278;29;20040;-64
2024/03/07 04:32:46;;;;;;;0.37;0.37;;;;;;;;;;4879110;29;20268;-64
2024/03/07 04:35:12;;;;;;;0.40;0.40;;;;;;;;;;4878969;29;20028;-64
2024/03/07 04:37:37;;;;;;;0.17;0.17;;;;;;;;;;4879512;29;20562;-64
2024/03/07 04:40:14;;;;;;;0.73;0.73;;;;;;;;;;4879275;29;20044;-64
2024/03/07 04:42:40;;;;;;;0.10;0.10;;;;;;;;;;4879290;29;20363;-64
2024/03/07 04:45:05;;;;;;;0.45;0.45;;;;;;;;;;4879054;29;20177;-64
2024/03/07 04:47:30;;;;;;;0.10;0.10;;;;;;;;;;4879163;29;20112;-64
2024/03/07 04:49:56;;;;;;;0.10;0.10;;;;;;;;;;4878924;29;20040;-64
2024/03/07 04:52:21;;;;;;;0.93;0.67;;;;;;;;;;4878758;29;20067;-64
2024/03/07 04:54:46;;;;;;;0.20;0.20;;;;;;;;;;4879075;29;20077;-64
2024/03/07 04:57:12;;;;;;;0.10;0.10;;;;;;;;;;4878777;29;20488;-64
2024/03/07 04:59:38;;;;;;;1.15;1.05;;;;;;;;;;4879214;29;20021;-64
2024/03/07 05:02:03;;;;;;;6.50;1.43;;;;;;;;;;4879385;29;20025;-64
2024/03/07 05:04:29;;;;;;;0.05;0.05;;;;;;;;;;4878976;29;20052;-64
2024/03/07 05:06:54;;;;;;;0.43;0.43;;;;;;;;;;4879362;29;20076;-64
2024/03/07 05:09:25;;;;;;;0.10;0.10;;;;;;;;;;4877472;29;20026;-64
2024/03/07 05:11:54;;;;;;;0.15;0.15;;;;;;;;;;4878285;29;20021;-64
2024/03/07 05:14:20;;;;;;;0.65;0.65;;;;;;;;;;4878827;29;20550;-68
2024/03/07 05:16:45;;;;;;;0.47;0.47;;;;;;;;;;4878091;29;20104;-68
2024/03/07 05:19:10;;;;;;;0.10;0.10;;;;;;;;;;4878174;29;20021;-67
2024/03/07 05:21:38;;;;;;;0.83;0.83;;;;;;;;;;4877732;29;20358;-67
2024/03/07 05:24:04;;;;;;;1.67;1.15;;;;;;;;;;4878373;29;20244;-68
2024/03/07 05:26:33;;;;;;;0.20;0.20;;;;;;;;;;4878377;29;20070;-67
2024/03/07 05:28:59;;;;;;;0.35;0.35;;;;;;;;;;4881016;29;20065;-67
2024/03/07 05:31:24;;;;;;;0.80;0.63;;;;;;;;;;4880628;29;20045;-67
2024/03/07 05:33:50;;;;;;;0.68;0.57;;;;;;;;;;4880782;29;20427;-67
2024/03/07 05:36:15;;;;;;;0.60;0.60;;;;;;;;;;4881072;29;20029;-68
2024/03/07 05:38:44;;;;;;;1.13;1.03;;;;;;;;;;4880907;29;20040;-67
2024/03/07 05:41:10;;;;;;;0.10;0.10;;;;;;;;;;4881311;29;20276;-67
2024/03/07 05:43:35;;;;;;;0.80;0.80;;;;;;;;;;4881409;29;20061;-67
2024/03/07 05:46:00;;;;;;;0.40;0.40;;;;;;;;;;4881262;29;20037;-67
2024/03/07 05:48:26;;;;;;;0.30;0.30;;;;;;;;;;4880909;29;20029;-67
2024/03/07 05:50:51;;;;;;;1.00;0.57;;;;;;;;;;4881249;29;20074;-67
2024/03/07 05:53:17;;;;;;;0.10;0.10;;;;;;;;;;4880825;29;20344;-68
2024/03/07 05:55:43;;;;;;;0.22;0.22;;;;;;;;;;4880955;29;20021;-67
2024/03/07 05:58:08;;;;;;;0.63;0.63;;;;;;;;;;4880568;29;20108;-67
2024/03/07 06:00:34;;;;;;;0.23;0.23;;;;;;;;;;4880321;29;20043;-67
2024/03/07 06:03:00;;;;;;;0.20;0.20;;;;;;;;;;4880314;29;20657;-67
2024/03/07 06:05:26;;;;;;;0.20;0.20;;;;;;;;;;4880461;29;20080;-67
2024/03/07 06:07:52;;;;;;;0.98;0.95;;;;;;;;;;4880374;29;20291;-67
2024/03/07 06:10:17;;;;;;;0.10;0.10;;;;;;;;;;4880934;29;20136;-67
2024/03/07 06:12:45;;;;;;;0.80;0.80;;;;;;;;;;4880485;29;20024;-67
2024/03/07 06:15:10;;;;;;;0.32;0.32;;;;;;;;;;4880861;29;20343;-67
2024/03/07 06:17:36;;;;;;;0.10;0.10;;;;;;;;;;4880422;29;20167;-67
2024/03/07 06:20:01;;;;;;;1.10;0.60;;;;;;;;;;4880427;29;20036;-67
2024/03/07 06:22:26;;;;;;;0.20;0.20;;;;;;;;;;4880336;29;20271;-67
2024/03/07 06:24:51;;;;;;;1.03;0.87;;;;;;;;;;4880716;29;20268;-64
2024/03/07 06:27:26;;;;;;;0.10;0.10;;;;;;;;;;4881161;29;20413;-64
2024/03/07 06:29:52;;;;;;;0.10;0.10;;;;;;;;;;4881718;29;20112;-64
2024/03/07 06:32:17;;;;;;;0.10;0.10;;;;;;;;;;4881063;29;20033;-64
2024/03/07 06:34:43;;;;;;;0.20;0.20;;;;;;;;;;4881095;29;20089;-64
2024/03/07 06:37:08;;;;;;;0.10;0.10;;;;;;;;;;4877354;29;20053;-64
2024/03/07 06:39:33;;;;;;;0.20;0.20;;;;;;;;;;4878210;29;20032;-64
2024/03/07 06:41:59;;;;;;;0.10;0.10;;;;;;;;;;4877660;29;20044;-64
2024/03/07 06:44:25;;;;;;;0.10;0.10;;;;;;;;;;4876522;29;20078;-64
2024/03/07 06:46:50;;;;;;;0.35;0.30;;;;;;;;;;4872513;29;20083;-64
2024/03/07 06:49:16;;;;;;;0.20;0.20;;;;;;;;;;4879886;29;20048;-64
2024/03/07 06:51:41;;;;;;;2.92;2.72;;;;;;;;;;4880399;29;20073;-64
2024/03/07 06:54:06;;;;;;;0.10;0.10;;;;;;;;;;4879392;29;20032;-64
2024/03/07 06:56:32;;;;;;;0.67;0.60;;;;;;;;;;4881388;29;20095;-64
2024/03/07 06:58:58;;;;;;;0.40;0.40;;;;;;;;;;4880011;29;20331;-64
2024/03/07 07:01:23;;;;;;;0.40;0.40;;;;;;;;;;4880449;29;20256;-64
2024/03/07 07:03:49;;;;;;;0.40;0.40;;;;;;;;;;4880244;29;20045;-64
2024/03/07 07:06:14;;;;;;;0.17;0.17;;;;;;;;;;4880501;29;20035;-65
2024/03/07 07:08:40;;;;;;;1.73;1.27;;;;;;;;;;4880127;29;20381;-64
2024/03/07 07:11:05;;;;;;;1.85;0.95;;;;;;;;;;4880570;29;20029;-64
2024/03/07 07:13:31;;;;;;;0.10;0.10;;;;;;;;;;4880314;29;20025;-64
2024/03/07 07:15:56;;;;;;;0.73;0.63;;;;;;;;;;4880614;29;20263;-64
2024/03/07 07:18:23;;;;;;;2.05;1.65;;;;;;;;;;4880421;29;20439;-64
2024/03/07 07:20:49;;;;;;;0.75;0.65;;;;;;;;;;4880353;29;20021;-64
2024/03/07 07:23:14;;;;;;;1.15;0.85;;;;;;;;;;4879493;29;20025;-64
2024/03/07 07:25:40;;;;;;;1.40;1.30;;;;;;;;;;4878903;29;20021;-64
2024/03/07 07:28:07;;;;;;;0.77;0.77;;;;;;;;;;4879800;29;20391;-64
2024/03/07 07:30:33;;;;;;;1.15;1.05;;;;;;;;;;4880318;29;20021;-64
2024/03/07 07:32:58;;;;;;;0.77;0.77;;;;;;;;;;4879716;29;20101;-64
2024/03/07 07:35:23;;;;;;;0.63;0.57;;;;;;;;;;4879494;29;20064;-64
2024/03/07 07:37:51;;;;;;;0.95;0.80;;;;;;;;;;4879097;29;20563;-64
2024/03/07 07:40:22;;;;;;;1.30;1.23;;;;;;;;;;4878745;29;20029;-64
2024/03/07 07:42:48;;;;;;;0.45;0.45;;;;;;;;;;4879474;29;20115;-64
2024/03/07 07:45:14;;;;;;;0.45;0.45;;;;;;;;;;4879630;29;20068;-64
2024/03/07 07:47:54;;;;;;;3.10;1.75;;;;;;;;;;4879341;29;20036;-64
2024/03/07 07:50:20;;;;;;;0.40;0.40;;;;;;;;;;4879356;29;20112;-64
2024/03/07 07:52:47;;;;;;;0.75;0.75;;;;;;;;;;4878636;29;20107;-64
2024/03/07 07:55:17;;;;;;;1.10;0.55;;;;;;;;;;4879225;29;20025;-64
2024/03/07 07:57:45;;;;;;;1.30;1.20;;;;;;;;;;4879060;29;20032;-64
2024/03/07 08:00:11;;;;;;;1.00;1.00;;;;;;;;;;4878960;29;20028;-64
2024/03/07 08:02:37;;;;;;;0.20;0.20;;;;;;;;;;4878806;29;20071;-64
2024/03/07 08:05:05;;;;;;;1.02;1.02;;;;;;;;;;4879075;29;20093;-64
2024/03/07 08:07:30;;;;;;;0.30;0.30;;;;;;;;;;4878572;29;20036;-64
2024/03/07 08:09:55;;;;;;;0.63;0.53;;;;;;;;;;4879024;29;20410;-64
2024/03/07 08:12:20;;;;;;;0.20;0.20;;;;;;;;;;4879252;29;20751;-64
2024/03/07 08:14:46;;;;;;;1.73;1.20;;;;;;;;;;4878476;29;20025;-65
2024/03/07 08:17:11;;;;;;;1.23;1.13;;;;;;;;;;4878637;29;20077;-64
2024/03/07 08:19:36;;;;;;;1.20;0.93;;;;;;;;;;4879099;29;20260;-64
2024/03/07 08:22:01;;;;;;;0.73;0.73;;;;;;;;;;4878472;29;20260;-64
2024/03/07 08:24:27;;;;;;;0.45;0.45;;;;;;;;;;4870424;29;20056;-64
2024/03/07 08:26:53;;;;;;;0.88;0.88;;;;;;;;;;4877993;29;20036;-64
2024/03/07 08:29:18;;;;;;;1.25;0.43;;;;;;;;;;4876421;29;20092;-64
2024/03/07 08:31:44;;;;;;;0.20;0.20;;;;;;;;;;4878810;29;20029;-64
2024/03/07 08:34:09;;;;;;;0.25;0.25;;;;;;;;;;4877358;29;20044;-64
2024/03/07 08:36:36;;;;;;;0.63;0.63;;;;;;;;;;4878199;29;20025;-64
2024/03/07 08:39:03;;;;;;;0.98;0.90;;;;;;;;;;4877858;29;20029;-64
2024/03/07 08:41:29;;;;;;;0.43;0.43;;;;;;;;;;4878206;29;20496;-64
2024/03/07 08:43:54;;;;;;;0.52;0.52;;;;;;;;;;4878738;29;20386;-68
2024/03/07 08:46:19;;;;;;;0.43;0.43;;;;;;;;;;4878523;29;20033;-68
2024/03/07 08:48:45;;;;;;;0.45;0.45;;;;;;;;;;4878946;29;20035;-68
2024/03/07 08:51:10;;;;;;;0.82;0.60;;;;;;;;;;4877773;29;20042;-68
2024/03/07 08:53:36;;;;;;;0.40;0.33;;;;;;;;;;4879084;29;20040;-68
2024/03/07 08:56:02;;;;;;;0.60;0.60;;;;;;;;;;4879120;29;20021;-67
2024/03/07 08:58:28;;;;;;;0.55;0.45;;;;;;;;;;4879093;29;20116;-67
2024/03/07 09:00:53;;;;;;;0.85;0.77;;;;;;;;;;4878810;29;20100;-72
2024/03/07 09:03:21;;;;;;;2.33;0.77;;;;;;;;;;4881287;29;20025;-75
2024/03/07 09:05:46;;;;;;;0.30;0.30;;;;;;;;;;4882140;29;20378;-74
2024/03/07 09:08:12;;;;;;;0.20;0.20;;;;;;;;;;4882574;29;20116;-73
2024/03/07 09:10:41;;;;;;;2.15;0.65;;;;;;;;;;4866043;29;20480;-73
2024/03/07 09:13:06;;;;;;;0.30;0.30;;;;;;;;;;4882990;29;20024;-73
2024/03/07 09:15:33;;;;;;;0.55;0.55;;;;;;;;;;4882542;29;20025;-71
2024/03/07 09:17:58;;;;;;;0.50;0.50;;;;;;;;;;4882717;29;20438;-71
2024/03/07 09:20:23;;;;;;;0.50;0.50;;;;;;;;;;4882573;29;20028;-71
2024/03/07 09:23:02;;;;;;;0.10;0.10;;;;;;;;;;4882427;29;20064;-71
2024/03/07 09:25:27;;;;;;;1.05;0.93;;;;;;;;;;4882544;29;20060;-71
2024/03/07 09:27:53;;;;;;;1.10;1.00;;;;;;;;;;4882443;29;20029;-71
2024/03/07 09:30:24;;;;;;;0.73;0.73;;;;;;;;;;4882747;29;20394;-71
2024/03/07 09:32:49;;;;;;;0.52;0.50;;;;;;;;;;4882254;29;20028;-71
2024/03/07 09:35:16;;;;;;;0.27;0.27;;;;;;;;;;4882083;29;20025;-70
2024/03/07 09:37:42;;;;;;;0.35;0.35;;;;;;;;;;4882521;29;20661;-71
2024/03/07 09:40:09;;;;;;;0.30;0.30;;;;;;;;;;4882318;29;20467;-70
2024/03/07 09:42:35;;;;;;;1.13;0.85;;;;;;;;;;4866572;29;20074;-71
2024/03/07 09:45:01;;;;;;;0.63;0.63;;;;;;;;;;4882813;29;20048;-71
2024/03/07 09:47:27;;;;;;;0.10;0.10;;;;;;;;;;4882368;29;20120;-71
2024/03/07 09:49:53;;;;;;;0.50;0.50;;;;;;;;;;4882784;29;20156;-70
2024/03/07 09:52:19;;;;;;;0.80;0.77;;;;;;;;;;4882510;29;20017;-71
2024/03/07 09:54:44;;;;;;;0.20;0.20;;;;;;;;;;4882541;29;20099;-65
2024/03/07 09:57:10;;;;;;;0.43;0.43;;;;;;;;;;4882400;29;20017;-65
2024/03/07 09:59:40;;;;;;;0.20;0.20;;;;;;;;;;4882386;29;20036;-65
2024/03/07 10:02:09;;;;;;;0.50;0.50;;;;;;;;;;4882567;29;20059;-65
2024/03/07 10:04:43;;;;;;;0.40;0.40;;;;;;;;;;4881399;29;20056;-66
2024/03/07 10:07:12;;;;;;;1.88;1.20;;;;;;;;;;4881640;29;20037;-65
2024/03/07 10:09:37;;;;;;;0.77;0.77;;;;;;;;;;4881883;29;20493;-65
2024/03/07 10:12:04;;;;;;;0.50;0.45;;;;;;;;;;4881766;29;20021;-66
2024/03/07 10:14:32;;;;;;;0.25;0.25;;;;;;;;;;4881625;29;20029;-66
2024/03/07 10:16:57;;;;;;;0.95;0.95;;;;;;;;;;4881709;29;20033;-66
2024/03/07 10:19:22;;;;;;;0.95;0.73;;;;;;;;;;4881554;29;20029;-66
2024/03/07 10:21:47;;;;;;;0.20;0.20;;;;;;;;;;4880514;29;20430;-65
2024/03/07 10:24:13;;;;;;;0.77;0.77;;;;;;;;;;4881584;29;20025;-66
2024/03/07 10:26:38;;;;;;;0.32;0.32;;;;;;;;;;4881596;29;20029;-66
2024/03/07 10:29:07;;;;;;;0.50;0.50;;;;;;;;;;4881404;29;20021;-66
2024/03/07 10:31:33;;;;;;;0.65;0.65;;;;;;;;;;4881187;29;20036;-65
2024/03/07 10:33:59;;;;;;;0.20;0.20;;;;;;;;;;4881039;29;20037;-66
2024/03/07 10:36:25;;;;;;;0.28;0.28;;;;;;;;;;4881565;29;20064;-65
2024/03/07 10:38:50;;;;;;;0.88;0.88;;;;;;;;;;4881312;29;20029;-66
2024/03/07 10:41:15;;;;;;;3.70;1.37;;;;;;;;;;4881271;29;20498;-65
2024/03/07 10:43:42;;;;;;;0.30;0.22;;;;;;;;;;4881160;29;20033;-66
2024/03/07 10:46:09;;;;;;;0.38;0.38;;;;;;;;;;4881276;29;20032;-66
2024/03/07 10:48:39;;;;;;;0.75;0.75;;;;;;;;;;4880974;29;20486;-66
2024/03/07 10:51:05;;;;;;;0.43;0.25;;;;;;;;;;4881364;29;20017;-65
2024/03/07 10:53:38;;;;;;;0.50;0.50;;;;;;;;;;4881318;29;20068;-66
2024/03/07 10:56:06;;;;;;;0.30;0.30;;;;;;;;;;4881251;29;20029;-65
2024/03/07 10:58:42;;;;;;;0.17;0.17;;;;;;;;;;4880846;29;20025;-75
2024/03/07 11:01:11;;;;;;;0.40;0.40;;;;;;;;;;4881113;29;20470;-74
2024/03/07 11:03:36;;;;;;;0.50;0.50;;;;;;;;;;4880860;29;20186;-66
2024/03/07 11:06:06;;;;;;;0.65;0.57;;;;;;;;;;4880404;29;20119;-66
2024/03/07 11:08:32;;;;;;;0.13;0.13;;;;;;;;;;4880584;29;20056;-65
2024/03/07 11:10:57;;;;;;;0.43;0.43;;;;;;;;;;4880594;29;20069;-65
2024/03/07 11:13:22;;;;;;;0.50;0.50;;;;;;;;;;4880604;29;20029;-65
2024/03/07 11:15:49;;;;;;;0.80;0.43;;;;;;;;;;4878140;29;20256;-65
2024/03/07 11:18:15;;;;;;;1.13;1.05;;;;;;;;;;4876951;29;20031;-66
2024/03/07 11:20:43;;;;;;;0.40;0.40;;;;;;;;;;4878284;29;20021;-66
2024/03/07 11:23:28;;;;;;;0.60;0.32;;;;;;;;;;4890132;29;20408;-66
2024/03/07 11:26:07;;;;;;;1.55;0.80;;;;;;;;;;4880128;29;20512;-65
2024/03/07 11:28:32;;;;;;;0.30;0.30;;;;;;;;;;4879143;29;20112;-65
2024/03/07 11:31:27;;;;;;;0.32;0.32;;;;;;;;;;4878395;29;20061;-66
2024/03/07 11:34:11;;;;;;;0.55;0.50;;;;;;;;;;4856488;29;20040;-66
2024/03/07 11:36:43;;;;;;;0.55;0.50;;;;;;;;;;4878405;29;20175;-65
2024/03/07 11:39:31;;;;;;;0.30;0.30;;;;;;;;;;4879620;29;20032;-66
2024/03/07 11:41:56;;;;;;;0.30;0.30;;;;;;;;;;4879206;29;20528;-65
2024/03/07 11:44:21;;;;;;;1.10;1.00;;;;;;;;;;4879571;29;20064;-65
2024/03/07 11:46:46;;;;;;;1.00;1.00;;;;;;;;;;4879467;29;20275;-66
2024/03/07 11:49:15;;;;;;;0.30;0.30;;;;;;;;;;4878565;29;20291;-65
2024/03/07 11:51:40;;;;;;;0.57;0.57;;;;;;;;;;4879486;29;20355;-66
2024/03/07 11:54:06;;;;;;;0.70;0.70;;;;;;;;;;4879728;29;20104;-66
2024/03/07 11:56:31;;;;;;;0.43;0.43;;;;;;;;;;4880064;29;20017;-65
2024/03/07 11:58:57;;;;;;;0.70;0.70;;;;;;;;;;4879640;29;20473;-66
2024/03/07 12:01:25;;;;;;;0.22;0.22;;;;;;;;;;4879960;29;20791;-65
2024/03/07 12:03:52;;;;;;;2.00;1.10;;;;;;;;;;4876757;29;20092;-66
2024/03/07 12:06:19;;;;;;;0.82;0.82;;;;;;;;;;4878746;29;20085;-66
2024/03/07 12:08:45;;;;;;;0.60;0.60;;;;;;;;;;4879311;29;20040;-65
2024/03/07 12:11:15;;;;;;;0.60;0.60;;;;;;;;;;4879149;29;20024;-66
2024/03/07 12:13:40;;;;;;;0.73;0.73;;;;;;;;;;4879170;29;20390;-69
2024/03/07 12:16:07;;;;;;;1.40;1.30;;;;;;;;;;4879284;29;20021;-69
2024/03/07 12:18:33;;;;;;;1.75;1.02;;;;;;;;;;4878580;29;20264;-69
2024/03/07 12:20:59;;;;;;;0.68;0.68;;;;;;;;;;4878526;29;20048;-69
2024/03/07 12:23:25;;;;;;;0.10;0.10;;;;;;;;;;4879286;29;20056;-69
2024/03/07 12:26:01;;;;;;;0.47;0.47;;;;;;;;;;4878417;29;20033;-69
2024/03/07 12:28:26;;;;;;;0.17;0.17;;;;;;;;;;4879158;29;20044;-69
2024/03/07 12:30:53;;;;;;;0.37;0.37;;;;;;;;;;4878489;29;20431;-68
2024/03/07 12:33:19;;;;;;;0.15;0.15;;;;;;;;;;4878708;29;20041;-69
2024/03/07 12:35:49;;;;;;;0.30;0.30;;;;;;;;;;4879647;29;20028;-69
2024/03/07 12:38:16;;;;;;;0.65;0.65;;;;;;;;;;4874371;29;20423;-69
2024/03/07 12:40:46;;;;;;;0.20;0.20;;;;;;;;;;4878735;29;20025;-69
2024/03/07 12:43:18;;;;;;;1.80;0.43;;;;;;;;;;4879039;29;20033;-70
2024/03/07 12:45:50;;;;;;;0.10;0.10;;;;;;;;;;4878760;29;20093;-72
2024/03/07 12:48:16;;;;;;;;;;;;;;;;;;4879673;29;20090;-72
2024/03/07 12:50:41;;;;;;;0.20;0.20;;;;;;;;;;4879326;29;20343;-74
2024/03/07 12:53:11;;;;;;;0.20;0.20;;;;;;;;;;4878980;29;20073;-74
2024/03/07 12:55:37;;;;;;;0.10;0.10;;;;;;;;;;4879090;29;20018;-74
2024/03/07 12:58:04;;;;;;;0.85;0.85;;;;;;;;;;4878739;29;20021;-73
2024/03/07 13:00:30;;;;;;;0.15;0.15;;;;;;;;;;4879106;29;20099;-74
2024/03/07 13:02:57;;;;;;;0.98;0.93;;;;;;;;;;4879294;29;20112;-74
2024/03/07 13:05:22;;;;;;;0.43;0.43;;;;;;;;;;4878584;29;20053;-74
2024/03/07 13:07:48;;;;;;;0.77;0.77;;;;;;;;;;4878724;29;20382;-73
2024/03/07 13:10:20;;;;;;;0.10;0.10;;;;;;;;;;4875417;29;20263;-74
2024/03/07 13:12:45;;;;;;;0.30;0.30;;;;;;;;;;4879100;29;20043;-74
2024/03/07 13:15:14;;;;;;;1.40;1.30;;;;;;;;;;4878982;29;20590;-75
2024/03/07 13:17:39;;;;;;;0.20;0.17;;;;;;;;;;4878884;29;20029;-75
2024/03/07 13:20:11;;;;;;;0.85;0.63;;;;;;;;;;4878736;29;20397;-74
2024/03/07 13:22:37;;;;;;;0.20;0.20;;;;;;;;;;4879199;29;20057;-74
2024/03/07 13:25:04;;;;;;;0.35;0.35;;;;;;;;;;4878820;29;20060;-67
2024/03/07 13:27:30;;;;;;;0.50;0.50;;;;;;;;;;4878988;29;20064;-67
2024/03/07 13:29:55;;;;;;;1.10;0.63;;;;;;;;;;4878779;29;20070;-67
2024/03/07 13:32:21;;;;;;;1.00;1.00;;;;;;;;;;4878137;29;20264;-67
2024/03/07 13:34:46;;;;;;;0.37;0.37;;;;;;;;;;4878891;29;20021;-67
2024/03/07 13:37:13;;;;;;;0.97;0.53;;;;;;;;;;4878481;29;20021;-68
2024/03/07 13:39:39;;;;;;;0.65;0.60;;;;;;;;;;4878915;29;20417;-67
2024/03/07 13:42:04;;;;;;;0.70;0.70;;;;;;;;;;4878979;29;20491;-67
2024/03/07 13:44:30;;;;;;;0.40;0.40;;;;;;;;;;4878507;29;20544;-67
2024/03/07 13:46:55;;;;;;;0.70;0.63;;;;;;;;;;4878552;29;20029;-67
2024/03/07 13:49:22;;;;;;;1.80;1.23;;;;;;;;;;4880832;29;20066;-67
2024/03/07 13:51:53;;;;;;;1.02;0.93;;;;;;;;;;4881912;29;20248;-67
2024/03/07 13:54:33;;;;;;;0.68;0.68;;;;;;;;;;4882448;29;20027;-67
2024/03/07 13:57:14;;;;;;;1.73;1.63;;;;;;;;;;4882376;29;20062;-67
2024/03/07 13:59:43;;;;;;;0.63;0.63;;;;;;;;;;4882606;29;20033;-67
2024/03/07 14:02:28;;;;;;;0.43;0.43;;;;;;;;;;4882645;29;20598;-67
2024/03/07 14:05:12;;;;;;;0.80;0.32;;;;;;;;;;4881027;29;20048;-67
2024/03/07 14:08:00;;;;;;;2.28;1.92;;;;;;;;;;4882092;29;20041;-67
2024/03/07 14:10:39;;;;;;;0.10;0.10;;;;;;;;;;4881937;29;20036;-67
2024/03/07 14:13:23;;;;;;;0.32;0.28;;;;;;;;;;4881857;29;20020;-67
2024/03/07 14:15:58;;;;;;;0.35;0.35;;;;;;;;;;4881736;29;20096;-67
2024/03/07 14:19:00;;;;;;;0.68;0.68;;;;;;;;;;4881462;29;20036;-67
2024/03/07 14:21:48;;;;;;;1.08;0.98;;;;;;;;;;4805830;29;20031;-67
2024/03/07 14:24:33;;;;;;;1.05;1.02;;;;;;;;;;4877663;29;20442;-68
2024/03/07 14:27:01;;;;;;;0.10;0.10;;;;;;;;;;4876338;29;20029;-67
2024/03/07 14:29:37;;;;;;;0.28;0.28;;;;;;;;;;4881243;29;20029;-66
2024/03/07 14:32:03;;;;;;;0.47;0.47;;;;;;;;;;4881472;29;20059;-67
2024/03/07 14:34:31;;;;;;;0.52;0.52;;;;;;;;;;4881334;29;20489;-67
2024/03/07 14:37:02;;;;;;;0.85;0.85;;;;;;;;;;4881381;29;20028;-67
2024/03/07 14:39:28;;;;;;;1.75;0.88;;;;;;;;;;4874198;29;20512;-67
2024/03/07 14:41:58;;;;;;;1.45;1.00;;;;;;;;;;4881413;29;20052;-67